createdAt,value
2019-02-10T00:00:59.783Z,30.87
2019-02-10T00:06:04.694Z,28.87
2019-02-10T00:11:10.413Z,30.23
2019-02-10T00:16:19.141Z,29.43
2019-02-10T00:21:24.424Z,28.87
2019-02-10T00:26:30.962Z,28.70
2019-02-10T00:31:36.204Z,28.60
2019-02-10T00:36:40.467Z,29.17
2019-02-10T00:41:45.365Z,27.40
2019-02-10T00:46:49.834Z,27.07
2019-02-10T00:52:00.982Z,27.47
2019-02-10T00:57:06.558Z,26.97
2019-02-10T01:02:12.523Z,27.03
2019-02-10T01:07:17.229Z,25.80
2019-02-10T01:12:21.790Z,25.77
2019-02-10T01:17:27.160Z,25.33
2019-02-10T01:22:31.524Z,25.63
2019-02-10T01:27:36.404Z,24.17
2019-02-10T01:32:41.569Z,24.73
2019-02-10T01:37:46.280Z,25.07
2019-02-10T01:42:50.662Z,25.33
2019-02-10T01:47:54.942Z,24.17
2019-02-10T01:52:59.222Z,24.33
2019-02-10T01:58:03.825Z,24.07
2019-02-10T02:03:08.219Z,24.57
2019-02-10T02:08:12.850Z,23.17
2019-02-10T02:13:17.226Z,22.83
2019-02-10T02:18:21.510Z,23.43
2019-02-10T02:23:25.727Z,24.20
2019-02-10T02:28:30.003Z,23.43
2019-02-10T02:33:35.273Z,22.30
2019-02-10T02:38:39.953Z,21.30
2019-02-10T02:43:44.331Z,22.20
2019-02-10T02:48:48.502Z,21.47
2019-02-10T02:53:52.635Z,22.77
2019-02-10T02:58:56.868Z,22.63
2019-02-10T03:04:01.415Z,22.23
2019-02-10T03:09:07.214Z,21.50
2019-02-10T03:14:11.697Z,20.33
2019-02-10T03:19:15.882Z,21.10
2019-02-10T03:24:20.278Z,20.20
2019-02-10T03:29:24.842Z,21.17
2019-02-10T03:34:29.021Z,20.80
2019-02-10T03:39:33.934Z,19.60
2019-02-10T03:44:38.102Z,19.13
2019-02-10T03:49:42.573Z,19.97
2019-02-10T03:54:46.746Z,19.77
2019-02-10T03:59:50.950Z,20.10
2019-02-10T04:04:55.128Z,19.17
2019-02-10T04:09:59.391Z,19.87
2019-02-10T04:15:04.806Z,20.03
2019-02-10T04:20:10.519Z,18.57
2019-02-10T04:25:16.225Z,19.27
2019-02-10T04:30:20.399Z,19.67
2019-02-10T04:35:25.073Z,18.77
2019-02-10T04:40:30.271Z,19.20
2019-02-10T04:45:34.439Z,18.60
2019-02-10T04:50:38.702Z,18.57
2019-02-10T04:55:42.904Z,17.77
2019-02-10T05:00:47.574Z,16.67
2019-02-10T05:05:51.774Z,17.40
2019-02-10T05:10:56.073Z,17.30
2019-02-10T05:16:00.270Z,17.23
2019-02-10T05:21:04.775Z,17.27
2019-02-10T05:26:09.778Z,17.50
2019-02-10T05:31:15.487Z,17.47
2019-02-10T05:36:19.871Z,17.33
2019-02-10T05:41:24.962Z,17.57
2019-02-10T05:46:29.239Z,16.43
2019-02-10T05:51:33.926Z,17.50
2019-02-10T05:56:38.701Z,17.10
2019-02-10T06:02:05.695Z,16.37
2019-02-10T06:07:12.645Z,17.63
2019-02-10T06:12:17.717Z,16.47
2019-02-10T06:17:22.001Z,15.80
2019-02-10T06:22:26.289Z,15.83
2019-02-10T06:27:30.577Z,16.37
2019-02-10T06:32:34.952Z,16.20
2019-02-10T06:37:39.429Z,16.40
2019-02-10T06:42:43.965Z,16.47
2019-02-10T06:47:48.565Z,15.03
2019-02-10T06:52:53.040Z,14.47
2019-02-10T06:57:57.246Z,15.10
2019-02-10T07:03:36.078Z,15.50
2019-02-10T07:08:40.966Z,16.07
2019-02-10T07:13:50.906Z,15.60
2019-02-10T07:19:30.976Z,15.53
2019-02-10T07:24:53.344Z,14.80
2019-02-10T07:30:43.642Z,14.27
2019-02-10T07:36:56.206Z,14.07
2019-02-10T07:42:28.609Z,14.40
2019-02-10T07:48:12.919Z,14.23
2019-02-10T07:53:48.335Z,14.23
2019-02-10T07:59:30.617Z,15.13
2019-02-10T08:05:06.258Z,13.57
2019-02-10T08:10:55.413Z,13.30
2019-02-10T08:16:17.770Z,13.07
2019-02-10T08:22:15.153Z,13.23
2019-02-10T08:27:40.277Z,13.77
2019-02-10T08:33:06.625Z,13.60
2019-02-10T08:38:46.259Z,14.07
2019-02-10T08:44:18.999Z,12.10
2019-02-10T08:50:13.346Z,13.20
2019-02-10T08:55:19.209Z,12.67
2019-02-10T09:00:23.909Z,12.73
2019-02-10T09:05:28.399Z,11.67
2019-02-10T09:10:32.607Z,11.63
2019-02-10T09:15:36.785Z,12.23
2019-02-10T09:20:41.070Z,11.83
2019-02-10T09:25:45.355Z,12.27
2019-02-10T09:30:49.535Z,11.53
2019-02-10T09:35:53.718Z,12.43
2019-02-10T09:40:57.889Z,12.63
2019-02-10T09:46:02.066Z,11.73
2019-02-10T09:51:07.118Z,11.90
2019-02-10T09:56:12.885Z,12.33
2019-02-10T10:01:18.614Z,11.20
2019-02-10T10:06:22.861Z,11.47
2019-02-10T10:11:27.251Z,12.00
2019-02-10T10:16:32.026Z,11.80
2019-02-10T10:21:37.005Z,10.93
2019-02-10T10:26:41.369Z,11.20
2019-02-10T10:31:46.569Z,12.60
2019-02-10T10:36:50.750Z,84.70
2019-02-10T10:41:55.245Z,167.37
2019-02-10T10:46:59.723Z,162.83
2019-02-10T10:52:03.919Z,141.67
2019-02-10T10:57:09.649Z,210.37
2019-02-10T11:02:14.134Z,201.93
2019-02-10T11:07:18.621Z,179.40
2019-02-10T11:12:22.908Z,112.87
2019-02-10T11:17:27.467Z,79.20
2019-02-10T11:22:31.735Z,68.47
2019-02-10T11:27:36.234Z,59.80
2019-02-10T11:32:40.838Z,78.93
2019-02-10T11:37:45.421Z,99.30
2019-02-10T11:42:49.709Z,98.43
2019-02-10T11:47:54.109Z,109.37
2019-02-10T11:52:59.717Z,101.60
2019-02-10T11:58:04.147Z,86.60
2019-02-10T12:03:09.865Z,76.20
2019-02-10T12:08:14.665Z,67.90
2019-02-10T12:13:18.863Z,60.63
2019-02-10T12:18:23.349Z,53.60
2019-02-10T12:23:27.546Z,46.30
2019-02-10T12:28:32.813Z,41.60
2019-02-10T12:33:37.328Z,40.73
2019-02-10T12:38:41.641Z,38.70
2019-02-10T12:43:45.842Z,34.60
2019-02-10T12:48:50.238Z,41.80
2019-02-10T12:53:54.531Z,37.07
2019-02-10T12:58:58.974Z,32.83
2019-02-10T13:04:04.489Z,30.90
2019-02-10T13:09:09.675Z,29.10
2019-02-10T13:14:15.466Z,27.93
2019-02-10T13:19:19.766Z,29.93
2019-02-10T13:24:24.819Z,27.73
2019-02-10T13:29:29.453Z,27.07
2019-02-10T13:34:33.637Z,27.77
2019-02-10T13:39:38.293Z,26.60
2019-02-10T13:44:42.470Z,24.23
2019-02-10T13:49:46.654Z,24.83
2019-02-10T13:54:50.837Z,23.77
2019-02-10T13:59:55.278Z,23.27
2019-02-10T14:05:00.250Z,24.57
2019-02-10T14:10:06.278Z,22.47
2019-02-10T14:15:12.546Z,23.17
2019-02-10T14:20:18.278Z,23.50
2019-02-10T14:25:22.733Z,23.43
2019-02-10T14:30:27.365Z,22.03
2019-02-10T14:35:32.264Z,21.67
2019-02-10T14:40:37.522Z,21.27
2019-02-10T14:45:41.714Z,21.13
2019-02-10T14:50:46.770Z,22.00
2019-02-10T14:55:50.955Z,20.80
2019-02-10T15:00:55.882Z,22.93
2019-02-10T15:06:00.349Z,22.70
2019-02-10T15:11:04.733Z,21.73
2019-02-10T15:16:10.335Z,23.17
2019-02-10T15:21:14.712Z,22.13
2019-02-10T15:26:18.878Z,21.53
2019-02-10T15:31:23.185Z,22.07
2019-02-10T15:36:27.620Z,21.93
2019-02-10T15:41:32.049Z,21.77
2019-02-10T15:46:36.590Z,19.23
2019-02-10T15:51:40.983Z,20.83
2019-02-10T15:56:45.318Z,21.50
2019-02-10T16:01:49.636Z,19.30
2019-02-10T16:06:53.862Z,21.87
2019-02-10T16:11:58.095Z,20.60
2019-02-10T16:17:02.326Z,21.60
2019-02-10T16:22:07.935Z,21.80
2019-02-10T16:27:12.370Z,20.50
2019-02-10T16:32:17.151Z,106.43
2019-02-10T16:37:21.437Z,180.50
2019-02-10T16:42:27.205Z,107.57
2019-02-10T16:47:31.433Z,62.43
2019-02-10T16:52:35.799Z,50.90
2019-02-10T16:57:39.993Z,53.20
2019-02-10T17:02:44.366Z,50.10
2019-02-10T17:07:48.675Z,40.53
2019-02-10T17:12:53.835Z,208.90
2019-02-10T17:18:00.552Z,308.90
2019-02-10T17:23:05.098Z,238.67
2019-02-10T17:28:10.752Z,222.83
2019-02-10T17:33:14.984Z,192.17
2019-02-10T17:38:19.362Z,109.23
2019-02-10T17:43:28.227Z,88.73
2019-02-10T17:48:29.547Z,95.00
2019-02-10T17:53:34.254Z,88.87
2019-02-10T17:58:38.557Z,89.97
2019-02-10T18:03:43.670Z,87.07
2019-02-10T18:08:48.708Z,85.93
2019-02-10T18:13:53.120Z,85.37
2019-02-10T18:18:58.761Z,87.77
2019-02-10T18:24:03.501Z,86.33
2019-02-10T18:29:10.083Z,84.10
2019-02-10T18:34:14.661Z,82.33
2019-02-10T18:39:20.543Z,79.10
2019-02-10T18:44:25.293Z,77.63
2019-02-10T18:49:29.519Z,73.73
2019-02-10T18:54:34.812Z,66.67
2019-02-10T18:59:39.565Z,67.23
2019-02-10T19:04:44.760Z,67.73
2019-02-10T19:09:49.311Z,66.80
2019-02-10T19:14:53.541Z,68.77
2019-02-10T19:19:57.734Z,59.60
2019-02-10T19:25:01.928Z,58.20
2019-02-10T19:30:08.918Z,57.60
2019-02-10T19:35:13.851Z,60.03
2019-02-10T19:40:18.505Z,55.23
2019-02-10T19:45:22.676Z,56.60
2019-02-10T19:50:26.922Z,55.17
2019-02-10T19:55:31.437Z,54.63
2019-02-10T20:00:35.673Z,53.83
2019-02-10T20:05:40.925Z,48.50
2019-02-10T20:10:45.341Z,46.93
2019-02-10T20:15:49.890Z,46.87
2019-02-10T20:20:54.348Z,48.67
2019-02-10T20:25:58.561Z,44.93
2019-02-10T20:31:06.123Z,45.20
2019-02-10T20:36:08.817Z,42.60
2019-02-10T20:41:14.583Z,43.13
2019-02-10T20:46:18.786Z,43.63
2019-02-10T20:51:23.146Z,41.00
2019-02-10T20:56:27.447Z,43.07
2019-02-10T21:01:31.660Z,40.27
2019-02-10T21:06:35.965Z,39.70
2019-02-10T21:11:40.570Z,39.33
2019-02-10T21:16:44.981Z,39.60
2019-02-10T21:21:49.272Z,40.13
2019-02-10T21:26:53.543Z,37.93
2019-02-10T21:31:57.729Z,38.17
2019-02-10T21:37:02.014Z,37.97
2019-02-10T21:42:07.433Z,37.33
2019-02-10T21:47:11.648Z,36.10
2019-02-10T21:52:15.995Z,35.90
2019-02-10T21:57:20.310Z,35.40
2019-02-10T22:02:24.858Z,35.77
2019-02-10T22:07:29.294Z,35.10
2019-02-10T22:12:37.104Z,32.40
2019-02-10T22:17:39.663Z,34.07
2019-02-10T22:22:44.037Z,33.37
2019-02-10T22:27:48.245Z,31.73
2019-02-10T22:32:52.442Z,33.10
2019-02-10T22:37:57.300Z,31.73
2019-02-10T22:43:01.511Z,31.77
2019-02-10T22:48:06.824Z,30.87
2019-02-10T22:53:12.556Z,30.87
2019-02-10T22:58:16.953Z,30.87
2019-02-10T23:03:21.168Z,29.67
2019-02-10T23:08:25.479Z,28.63
2019-02-10T23:13:29.806Z,29.60
2019-02-10T23:18:34.581Z,28.83
2019-02-10T23:23:38.865Z,27.37
2019-02-10T23:28:43.154Z,27.60
2019-02-10T23:33:48.083Z,27.97
2019-02-10T23:38:53.343Z,27.97
2019-02-10T23:43:58.113Z,26.93
2019-02-10T23:49:02.285Z,27.30
2019-02-10T23:54:06.797Z,25.47
2019-02-10T23:59:11.066Z,26.40
